Time;durP1;ratioP1;P1;durP2;ratioP2;P2;SDS_P1;SDS_P2;PMS_P1;PMS_P2;Temp;Humidity;BMP_temperature;BMP_pressure;BME280_temperature;BME280_humidity;BME280_pressure;Samples;Min_cycle;Max_cycle;Signal;HPM_P1;HPM_P2
2022/10/28 00:01:12;;;;;;;9.85;3.13;;;;;;;;;;5012245;28;20078;-62
2022/10/28 00:03:47;;;;;;;8.63;3.95;;;;;;;;;;5011995;28;20050;-63
2022/10/28 00:06:16;;;;;;;9.27;3.83;;;;;;;;;;5013839;28;20120;-62
2022/10/28 00:08:42;;;;;;;6.47;2.75;;;;;;;;;;5031310;28;20136;-63
2022/10/28 00:11:12;;;;;;;11.43;4.18;;;;;;;;;;5031446;28;20092;-63
2022/10/28 00:13:39;;;;;;;9.18;3.35;;;;;;;;;;5031662;28;20562;-62
2022/10/28 00:16:10;;;;;;;7.43;3.30;;;;;;;;;;5031560;28;20049;-63
2022/10/28 00:18:36;;;;;;;10.00;3.25;;;;;;;;;;5031471;28;20084;-63
2022/10/28 00:21:05;;;;;;;6.70;3.22;;;;;;;;;;5031530;28;20088;-63
2022/10/28 00:23:32;;;;;;;7.93;3.45;;;;;;;;;;5031569;28;20053;-63
2022/10/28 00:26:05;;;;;;;7.30;3.47;;;;;;;;;;5031717;28;20107;-63
2022/10/28 00:28:31;;;;;;;7.90;3.42;;;;;;;;;;5031251;28;20085;-63
2022/10/28 00:31:05;;;;;;;10.75;4.53;;;;;;;;;;5026760;28;20069;-62
2022/10/28 00:33:32;;;;;;;7.38;3.50;;;;;;;;;;5012407;28;20418;-63
2022/10/28 00:36:13;;;;;;;8.50;3.80;;;;;;;;;;5011845;28;20096;-63
2022/10/28 00:38:40;;;;;;;7.32;3.53;;;;;;;;;;5011358;28;20467;-63
2022/10/28 00:41:07;;;;;;;8.65;4.28;;;;;;;;;;5011635;28;20133;-62
2022/10/28 00:43:43;;;;;;;7.30;3.50;;;;;;;;;;5011564;28;20054;-63
2022/10/28 00:46:17;;;;;;;10.45;3.70;;;;;;;;;;5011555;28;20572;-63
2022/10/28 00:48:45;;;;;;;7.78;3.60;;;;;;;;;;5010098;28;20053;-62
2022/10/28 00:51:12;;;;;;;12.00;3.55;;;;;;;;;;5026479;28;20089;-62
2022/10/28 00:53:39;;;;;;;7.65;3.55;;;;;;;;;;5026744;28;20092;-62
2022/10/28 00:56:05;;;;;;;11.20;3.60;;;;;;;;;;5027117;28;20487;-62
2022/10/28 00:58:32;;;;;;;7.70;3.45;;;;;;;;;;5015181;28;20073;-62
2022/10/28 01:00:59;;;;;;;12.25;4.00;;;;;;;;;;5015188;28;20054;-62
2022/10/28 01:03:25;;;;;;;9.50;3.20;;;;;;;;;;5015154;28;20168;-63
2022/10/28 01:05:52;;;;;;;10.05;3.17;;;;;;;;;;5015301;28;20054;-62
2022/10/28 01:08:18;;;;;;;11.43;3.30;;;;;;;;;;5014698;28;20049;-62
2022/10/28 01:11:00;;;;;;;6.90;3.47;;;;;;;;;;5029689;28;20049;-62
2022/10/28 01:13:53;;;;;;;9.32;3.22;;;;;;;;;;5015110;28;20107;-62
2022/10/28 01:16:35;;;;;;;6.97;3.72;;;;;;;;;;5030125;28;20046;-62
2022/10/28 01:19:20;;;;;;;12.50;3.75;;;;;;;;;;5029812;28;20127;-62
2022/10/28 01:21:46;;;;;;;8.40;4.25;;;;;;;;;;5014637;28;20046;-63
2022/10/28 01:24:32;;;;;;;8.70;4.38;;;;;;;;;;5015007;28;20129;-62
2022/10/28 01:27:13;;;;;;;6.97;3.70;;;;;;;;;;5014839;28;20539;-62
2022/10/28 01:29:43;;;;;;;5.93;3.55;;;;;;;;;;5014222;28;20128;-63
2022/10/28 01:32:15;;;;;;;8.75;4.25;;;;;;;;;;5014915;28;20077;-63
2022/10/28 01:35:23;;;;;;;10.93;4.45;;;;;;;;;;5014465;28;20054;-62
2022/10/28 01:38:15;;;;;;;7.88;3.30;;;;;;;;;;4992134;28;20139;-62
2022/10/28 01:40:45;;;;;;;8.98;3.67;;;;;;;;;;5012147;28;20153;-62
2022/10/28 01:43:26;;;;;;;7.05;3.83;;;;;;;;;;5022026;28;20122;-62
2022/10/28 01:46:02;;;;;;;10.23;3.88;;;;;;;;;;5034123;28;20128;-62
2022/10/28 01:48:35;;;;;;;10.07;3.80;;;;;;;;;;5048966;28;20045;-62
2022/10/28 01:51:06;;;;;;;8.00;4.03;;;;;;;;;;5032529;28;20072;-62
2022/10/28 01:53:34;;;;;;;10.15;3.80;;;;;;;;;;5032885;28;20474;-61
2022/10/28 01:56:04;;;;;;;11.25;4.60;;;;;;;;;;5032862;28;20144;-62
2022/10/28 01:58:31;;;;;;;12.43;4.75;;;;;;;;;;5033458;28;20678;-62
2022/10/28 02:00:58;;;;;;;8.82;3.80;;;;;;;;;;5032648;28;20149;-62
2022/10/28 02:03:26;;;;;;;7.50;3.90;;;;;;;;;;5033736;28;20569;-62
2022/10/28 02:05:55;;;;;;;7.70;4.18;;;;;;;;;;5033849;28;20136;-62
2022/10/28 02:08:24;;;;;;;10.27;3.80;;;;;;;;;;5048157;28;20050;-62
2022/10/28 02:10:57;;;;;;;6.13;3.65;;;;;;;;;;5033220;28;20145;-62
2022/10/28 02:13:25;;;;;;;;;;;;;;;;;;5049649;28;20463;-62
2022/10/28 02:15:57;;;;;;;10.15;4.13;;;;;;;;;;5033530;28;20012;-62
2022/10/28 02:18:33;;;;;;;10.63;4.10;;;;;;;;;;5031966;28;20049;-62
2022/10/28 02:21:14;;;;;;;9.35;4.20;;;;;;;;;;5048499;28;20056;-62
2022/10/28 02:23:50;;;;;;;7.20;3.88;;;;;;;;;;5032467;28;20103;-62
2022/10/28 02:26:21;;;;;;;6.63;4.05;;;;;;;;;;5032168;28;20136;-62
2022/10/28 02:28:47;;;;;;;10.48;3.40;;;;;;;;;;5048128;28;20459;-62
2022/10/28 02:31:22;;;;;;;9.45;4.72;;;;;;;;;;5025337;28;20128;-63
2022/10/28 02:33:50;;;;;;;7.43;4.45;;;;;;;;;;5028244;28;20136;-62
2022/10/28 02:36:17;;;;;;;8.98;3.75;;;;;;;;;;4980256;28;20123;-62
2022/10/28 02:38:47;;;;;;;13.95;3.65;;;;;;;;;;5011844;28;20103;-63
2022/10/28 02:41:27;;;;;;;10.85;4.07;;;;;;;;;;4996333;28;20500;-63
2022/10/28 02:43:55;;;;;;;9.70;3.45;;;;;;;;;;5012278;28;20448;-62
2022/10/28 02:46:22;;;;;;;8.25;4.07;;;;;;;;;;5011980;28;20119;-62
2022/10/28 02:48:51;;;;;;;8.10;3.88;;;;;;;;;;4995695;28;20402;-63
2022/10/28 02:51:20;;;;;;;10.63;4.15;;;;;;;;;;5012950;28;20046;-62
2022/10/28 02:54:16;;;;;;;11.20;4.38;;;;;;;;;;5011949;28;20085;-62
2022/10/28 02:56:52;;;;;;;7.05;4.18;;;;;;;;;;5012113;28;20136;-62
2022/10/28 02:59:18;;;;;;;8.35;4.30;;;;;;;;;;5011623;28;20145;-62
2022/10/28 03:01:45;;;;;;;10.88;4.40;;;;;;;;;;5011958;28;20128;-62
2022/10/28 03:04:12;;;;;;;6.97;3.88;;;;;;;;;;5013219;28;20050;-62
2022/10/28 03:06:38;;;;;;;7.82;4.13;;;;;;;;;;5012764;28;20299;-63
2022/10/28 03:09:05;;;;;;;6.72;3.17;;;;;;;;;;5012290;28;20053;-62
2022/10/28 03:11:31;;;;;;;9.88;4.45;;;;;;;;;;5021833;28;20053;-62
2022/10/28 03:13:58;;;;;;;8.10;3.47;;;;;;;;;;5032628;28;20128;-62
2022/10/28 03:16:28;;;;;;;10.00;3.80;;;;;;;;;;5032412;28;20087;-62
2022/10/28 03:18:54;;;;;;;9.68;3.88;;;;;;;;;;5032335;28;20095;-63
2022/10/28 03:21:21;;;;;;;9.32;4.40;;;;;;;;;;5031430;28;20046;-62
2022/10/28 03:23:47;;;;;;;9.40;3.60;;;;;;;;;;5032268;28;20127;-62
2022/10/28 03:26:14;;;;;;;7.18;3.47;;;;;;;;;;5032666;28;20046;-63
2022/10/28 03:28:41;;;;;;;7.68;3.80;;;;;;;;;;5031865;28;20489;-62
2022/10/28 03:31:07;;;;;;;7.82;3.45;;;;;;;;;;5032457;28;20107;-62
2022/10/28 03:33:34;;;;;;;11.80;4.18;;;;;;;;;;5032217;28;20084;-63
2022/10/28 03:36:00;;;;;;;10.93;3.80;;;;;;;;;;5030939;28;20141;-62
2022/10/28 03:38:27;;;;;;;7.03;3.15;;;;;;;;;;5031777;28;20136;-62
2022/10/28 03:40:53;;;;;;;7.68;3.83;;;;;;;;;;5032005;28;20128;-62
2022/10/28 03:43:20;;;;;;;5.78;3.42;;;;;;;;;;5032445;28;20077;-62
2022/10/28 03:45:47;;;;;;;5.93;3.50;;;;;;;;;;5032701;28;20053;-62
2022/10/28 03:48:13;;;;;;;11.63;3.63;;;;;;;;;;5030684;28;20084;-62
2022/10/28 03:50:40;;;;;;;9.15;4.28;;;;;;;;;;5031580;28;20081;-63
2022/10/28 03:53:06;;;;;;;9.82;3.97;;;;;;;;;;5026402;28;20513;-62
2022/10/28 03:55:33;;;;;;;10.32;4.50;;;;;;;;;;5012126;28;20054;-63
2022/10/28 03:58:00;;;;;;;9.10;3.78;;;;;;;;;;5011806;28;20095;-62
2022/10/28 04:00:27;;;;;;;9.93;3.88;;;;;;;;;;5012106;28;20050;-62
2022/10/28 04:02:54;;;;;;;5.35;3.03;;;;;;;;;;5031108;28;20050;-63
2022/10/28 04:05:21;;;;;;;5.38;3.00;;;;;;;;;;5031893;28;20069;-63
2022/10/28 04:07:47;;;;;;;9.85;3.75;;;;;;;;;;5031480;28;20049;-62
2022/10/28 04:10:14;;;;;;;8.77;3.42;;;;;;;;;;5031612;28;20141;-62
2022/10/28 04:12:41;;;;;;;5.85;3.45;;;;;;;;;;5016167;28;20046;-63
2022/10/28 04:15:07;;;;;;;9.48;3.30;;;;;;;;;;5032041;28;20141;-62
2022/10/28 04:17:34;;;;;;;8.88;3.67;;;;;;;;;;5031942;28;20516;-62
2022/10/28 04:20:01;;;;;;;6.38;3.17;;;;;;;;;;5031183;28;20140;-62
2022/10/28 04:22:27;;;;;;;17.80;3.78;;;;;;;;;;5031796;28;20406;-62
2022/10/28 04:24:54;;;;;;;8.25;3.40;;;;;;;;;;5031933;28;20073;-62
2022/10/28 04:27:20;;;;;;;10.65;4.07;;;;;;;;;;5031476;28;20566;-62
2022/10/28 04:29:47;;;;;;;7.10;3.55;;;;;;;;;;5031005;28;20084;-62
2022/10/28 04:32:13;;;;;;;7.57;4.05;;;;;;;;;;5033579;28;20100;-62
2022/10/28 04:34:40;;;;;;;12.40;3.95;;;;;;;;;;5035516;28;20331;-62
2022/10/28 04:37:07;;;;;;;7.68;3.80;;;;;;;;;;5035352;28;20076;-62
2022/10/28 04:39:33;;;;;;;8.73;3.70;;;;;;;;;;5034941;28;20571;-62
2022/10/28 04:42:00;;;;;;;8.95;3.55;;;;;;;;;;5035255;28;20119;-62
2022/10/28 04:44:26;;;;;;;7.43;3.70;;;;;;;;;;5035303;28;20243;-62
2022/10/28 04:46:55;;;;;;;7.00;3.97;;;;;;;;;;5034713;28;20132;-62
2022/10/28 04:49:21;;;;;;;7.35;3.67;;;;;;;;;;5034476;28;20080;-62
2022/10/28 04:51:48;;;;;;;8.43;3.95;;;;;;;;;;5034706;28;20073;-62
2022/10/28 04:54:15;;;;;;;11.40;3.85;;;;;;;;;;5035158;28;20049;-62
2022/10/28 04:56:41;;;;;;;9.23;3.47;;;;;;;;;;5033420;28;20092;-63
2022/10/28 04:59:08;;;;;;;7.88;3.67;;;;;;;;;;5034934;28;20091;-63
2022/10/28 05:01:35;;;;;;;11.68;4.43;;;;;;;;;;5034905;28;20073;-62
2022/10/28 05:04:01;;;;;;;9.65;4.03;;;;;;;;;;5035125;28;20471;-63
2022/10/28 05:06:28;;;;;;;10.15;4.05;;;;;;;;;;5035224;28;20073;-63
2022/10/28 05:08:55;;;;;;;8.27;3.63;;;;;;;;;;5034893;28;20081;-63
2022/10/28 05:11:21;;;;;;;7.13;3.55;;;;;;;;;;5024625;28;20540;-63
2022/10/28 05:13:48;;;;;;;11.77;3.90;;;;;;;;;;5014965;28;20081;-63
2022/10/28 05:16:14;;;;;;;8.57;3.65;;;;;;;;;;5015359;28;20062;-63
2022/10/28 05:18:41;;;;;;;13.88;3.80;;;;;;;;;;5014385;28;20136;-62
2022/10/28 05:21:07;;;;;;;6.60;3.15;;;;;;;;;;5014783;28;20042;-63
2022/10/28 05:23:34;;;;;;;9.85;4.10;;;;;;;;;;5014825;28;20532;-62
2022/10/28 05:26:01;;;;;;;10.35;4.25;;;;;;;;;;5014466;28;20092;-62
2022/10/28 05:28:27;;;;;;;13.32;4.68;;;;;;;;;;5014060;28;20084;-63
2022/10/28 05:30:54;;;;;;;12.05;3.85;;;;;;;;;;5020536;28;20083;-62
2022/10/28 05:33:21;;;;;;;9.82;3.95;;;;;;;;;;5034554;28;20123;-63
2022/10/28 05:35:47;;;;;;;9.27;4.15;;;;;;;;;;5034205;28;20095;-62
2022/10/28 05:38:14;;;;;;;13.90;3.80;;;;;;;;;;5033628;28;20099;-63
2022/10/28 05:40:40;;;;;;;6.68;3.78;;;;;;;;;;5033959;28;20053;-62
2022/10/28 05:43:08;;;;;;;8.48;3.92;;;;;;;;;;5033187;28;20049;-63
2022/10/28 05:45:35;;;;;;;6.15;3.58;;;;;;;;;;5034279;28;20053;-62
2022/10/28 05:48:02;;;;;;;10.77;4.00;;;;;;;;;;5034037;28;20131;-62
2022/10/28 05:50:28;;;;;;;7.68;4.47;;;;;;;;;;5032363;28;20045;-63
2022/10/28 05:52:56;;;;;;;11.25;4.20;;;;;;;;;;5014710;28;20132;-63
2022/10/28 05:55:27;;;;;;;9.10;4.00;;;;;;;;;;5014443;28;20057;-62
2022/10/28 05:57:54;;;;;;;11.02;4.18;;;;;;;;;;5013836;28;20112;-63
2022/10/28 06:00:23;;;;;;;10.43;3.72;;;;;;;;;;5013998;28;20065;-63
2022/10/28 06:02:50;;;;;;;8.02;3.67;;;;;;;;;;5014375;28;20125;-63
2022/10/28 06:05:17;;;;;;;6.32;3.38;;;;;;;;;;5013951;28;20054;-63
2022/10/28 06:07:43;;;;;;;7.93;3.72;;;;;;;;;;5013815;28;20049;-63
2022/10/28 06:10:11;;;;;;;7.15;4.03;;;;;;;;;;5013534;28;20049;-63
2022/10/28 06:12:38;;;;;;;9.73;4.00;;;;;;;;;;5017098;28;20112;-63
2022/10/28 06:15:05;;;;;;;9.90;3.85;;;;;;;;;;5033611;28;20057;-62
2022/10/28 06:17:31;;;;;;;12.52;3.90;;;;;;;;;;5033982;28;20136;-63
2022/10/28 06:19:58;;;;;;;12.13;4.80;;;;;;;;;;5032630;28;20065;-63
2022/10/28 06:22:24;;;;;;;11.82;3.97;;;;;;;;;;5033794;28;20131;-62
2022/10/28 06:24:51;;;;;;;11.23;4.00;;;;;;;;;;5033360;28;20504;-63
2022/10/28 06:27:18;;;;;;;10.10;3.88;;;;;;;;;;5033334;28;20135;-63
2022/10/28 06:29:44;;;;;;;8.68;3.85;;;;;;;;;;5032971;28;20140;-63
2022/10/28 06:32:11;;;;;;;8.10;3.95;;;;;;;;;;5033878;28;20103;-63
2022/10/28 06:34:38;;;;;;;8.40;3.80;;;;;;;;;;5033497;28;20140;-63
2022/10/28 06:37:06;;;;;;;11.57;4.07;;;;;;;;;;5024429;28;20425;-62
2022/10/28 06:39:33;;;;;;;9.10;3.55;;;;;;;;;;5012592;28;20065;-63
2022/10/28 06:41:59;;;;;;;9.02;3.40;;;;;;;;;;5012069;28;20045;-63
2022/10/28 06:44:26;;;;;;;13.57;4.40;;;;;;;;;;5013479;28;20151;-63
2022/10/28 06:46:53;;;;;;;7.03;3.15;;;;;;;;;;5013313;28;20572;-62
2022/10/28 06:49:19;;;;;;;12.38;4.05;;;;;;;;;;5012504;28;20058;-63
2022/10/28 06:51:46;;;;;;;10.90;4.03;;;;;;;;;;5013092;28;20046;-63
2022/10/28 06:54:12;;;;;;;10.05;3.47;;;;;;;;;;5013300;28;20132;-63
2022/10/28 06:56:39;;;;;;;12.27;5.07;;;;;;;;;;5013275;28;20054;-62
2022/10/28 06:59:07;;;;;;;12.23;4.43;;;;;;;;;;5012960;28;20073;-63
2022/10/28 07:01:34;;;;;;;7.40;4.18;;;;;;;;;;5022306;28;20140;-63
2022/10/28 07:04:00;;;;;;;5.85;4.15;;;;;;;;;;5032623;28;20520;-61
2022/10/28 07:06:27;;;;;;;8.68;3.40;;;;;;;;;;5032468;28;20100;-63
2022/10/28 07:08:54;;;;;;;10.02;4.05;;;;;;;;;;5032113;28;20477;-63
2022/10/28 07:11:20;;;;;;;9.65;4.00;;;;;;;;;;5032309;28;20050;-61
2022/10/28 07:13:47;;;;;;;8.50;4.15;;;;;;;;;;5032585;28;20580;-62
2022/10/28 07:16:14;;;;;;;12.25;3.45;;;;;;;;;;5032410;28;20045;-63
2022/10/28 07:18:41;;;;;;;11.98;4.10;;;;;;;;;;5031614;28;20103;-62
2022/10/28 07:21:07;;;;;;;8.05;3.45;;;;;;;;;;5032121;28;20087;-63
2022/10/28 07:23:34;;;;;;;9.05;3.17;;;;;;;;;;5032286;28;20088;-62
2022/10/28 07:26:00;;;;;;;12.02;4.53;;;;;;;;;;5023679;28;20049;-62
2022/10/28 07:28:27;;;;;;;9.25;3.55;;;;;;;;;;5012590;28;20080;-62
2022/10/28 07:30:54;;;;;;;7.88;3.47;;;;;;;;;;5012573;28;20050;-62
2022/10/28 07:33:21;;;;;;;13.93;4.03;;;;;;;;;;5012481;28;20068;-62
2022/10/28 07:35:47;;;;;;;6.63;3.70;;;;;;;;;;5012386;28;20057;-61
2022/10/28 07:38:14;;;;;;;6.13;3.22;;;;;;;;;;5029087;28;20136;-62
2022/10/28 07:40:40;;;;;;;12.60;3.67;;;;;;;;;;5032138;28;20452;-63
2022/10/28 07:43:07;;;;;;;15.18;4.22;;;;;;;;;;5025674;28;20111;-62
2022/10/28 07:45:34;;;;;;;9.93;5.10;;;;;;;;;;5012169;28;20136;-62
2022/10/28 07:48:01;;;;;;;12.25;4.10;;;;;;;;;;5011717;28;20081;-63
2022/10/28 07:50:28;;;;;;;13.25;4.72;;;;;;;;;;5012032;28;20516;-63
2022/10/28 07:52:55;;;;;;;8.55;4.03;;;;;;;;;;5012018;28;20096;-61
2022/10/28 07:55:22;;;;;;;12.68;3.95;;;;;;;;;;5012201;28;20050;-60
2022/10/28 07:57:49;;;;;;;9.55;4.40;;;;;;;;;;5011702;28;20080;-62
2022/10/28 08:00:16;;;;;;;8.48;3.35;;;;;;;;;;5011927;28;20085;-62
2022/10/28 08:02:43;;;;;;;10.20;3.75;;;;;;;;;;5012193;28;20281;-61
2022/10/28 08:05:09;;;;;;;11.48;4.00;;;;;;;;;;5011864;28;20457;-63
2022/10/28 08:07:36;;;;;;;9.52;4.30;;;;;;;;;;5017293;28;20053;-62
2022/10/28 08:10:04;;;;;;;8.90;4.03;;;;;;;;;;5017655;28;20467;-62
2022/10/28 08:12:31;;;;;;;10.23;3.63;;;;;;;;;;5018474;28;20493;-63
2022/10/28 08:14:58;;;;;;;5.13;3.28;;;;;;;;;;5018222;28;20100;-61
2022/10/28 08:17:24;;;;;;;9.68;4.22;;;;;;;;;;5018399;28;20050;-63
2022/10/28 08:19:51;;;;;;;8.50;3.55;;;;;;;;;;5017503;28;20077;-63
2022/10/28 08:22:17;;;;;;;10.85;4.25;;;;;;;;;;5018352;28;20123;-63
2022/10/28 08:24:44;;;;;;;7.97;3.50;;;;;;;;;;5018492;28;20084;-63
2022/10/28 08:27:11;;;;;;;8.15;3.80;;;;;;;;;;5018018;28;20046;-63
2022/10/28 08:29:37;;;;;;;8.30;3.47;;;;;;;;;;5017504;28;20081;-62
2022/10/28 08:32:07;;;;;;;8.88;3.42;;;;;;;;;;5018088;28;20481;-63
2022/10/28 08:34:34;;;;;;;7.63;3.65;;;;;;;;;;5018104;28;20494;-63
2022/10/28 08:37:06;;;;;;;10.10;4.03;;;;;;;;;;5018311;28;20092;-63
2022/10/28 08:39:32;;;;;;;9.50;3.70;;;;;;;;;;5017457;28;20049;-63
2022/10/28 08:42:27;;;;;;;10.35;4.32;;;;;;;;;;5018222;28;20085;-63
2022/10/28 08:45:16;;;;;;;7.85;3.50;;;;;;;;;;5032879;28;20050;-63
2022/10/28 08:48:04;;;;;;;6.05;3.33;;;;;;;;;;5018013;28;20535;-63
2022/10/28 08:50:32;;;;;;;7.75;3.00;;;;;;;;;;5016575;28;20084;-62
2022/10/28 08:53:02;;;;;;;10.82;3.83;;;;;;;;;;5016864;28;20457;-62
2022/10/28 08:55:31;;;;;;;8.57;2.80;;;;;;;;;;5017948;28;20099;-64
2022/10/28 08:58:07;;;;;;;10.25;2.90;;;;;;;;;;5032347;28;20089;-63
2022/10/28 09:00:34;;;;;;;7.05;3.63;;;;;;;;;;5016703;28;20054;-63
2022/10/28 09:03:16;;;;;;;9.52;2.95;;;;;;;;;;5016834;28;20443;-64
2022/10/28 09:05:46;;;;;;;7.68;2.97;;;;;;;;;;5017852;28;20046;-63
2022/10/28 09:08:23;;;;;;;6.40;3.22;;;;;;;;;;5016439;28;20104;-63
2022/10/28 09:11:13;;;;;;;9.98;3.30;;;;;;;;;;5017786;28;20081;-63
2022/10/28 09:13:43;;;;;;;9.05;2.80;;;;;;;;;;5016529;28;20134;-63
2022/10/28 09:16:46;;;;;;;8.48;3.20;;;;;;;;;;5017700;28;20112;-61
2022/10/28 09:19:39;;;;;;;8.57;2.67;;;;;;;;;;5029619;28;20067;-63
2022/10/28 09:22:17;;;;;;;12.23;4.23;;;;;;;;;;5013297;28;20122;-63
2022/10/28 09:24:56;;;;;;;7.75;2.88;;;;;;;;;;5014610;28;20132;-62
2022/10/28 09:27:41;;;;;;;8.68;3.10;;;;;;;;;;5029511;28;20148;-62
2022/10/28 09:30:32;;;;;;;12.80;3.00;;;;;;;;;;5014172;28;20058;-63
2022/10/28 09:33:14;;;;;;;8.98;3.58;;;;;;;;;;5014658;28;20378;-63
2022/10/28 09:35:42;;;;;;;7.82;2.80;;;;;;;;;;5013351;28;20575;-62
2022/10/28 09:38:14;;;;;;;6.90;2.60;;;;;;;;;;5012607;28;20132;-63
2022/10/28 09:40:43;;;;;;;7.75;3.17;;;;;;;;;;5022344;28;20504;-63
2022/10/28 09:43:31;;;;;;;9.75;3.58;;;;;;;;;;5049275;28;20045;-63
2022/10/28 09:46:01;;;;;;;9.38;3.78;;;;;;;;;;5033073;28;20054;-63
2022/10/28 09:48:32;;;;;;;9.52;3.25;;;;;;;;;;5032405;28;20053;-64
2022/10/28 09:50:58;;;;;;;6.07;2.80;;;;;;;;;;5032703;28;20049;-63
2022/10/28 09:53:47;;;;;;;7.55;3.30;;;;;;;;;;5032509;28;20416;-62
2022/10/28 09:56:13;;;;;;;5.57;2.50;;;;;;;;;;5048247;28;20088;-63
2022/10/28 09:58:45;;;;;;;7.10;3.40;;;;;;;;;;5031876;28;20095;-63
2022/10/28 10:01:12;;;;;;;9.83;2.80;;;;;;;;;;5032517;28;20057;-63
2022/10/28 10:03:40;;;;;;;9.25;2.75;;;;;;;;;;5048463;28;20041;-62
2022/10/28 10:06:16;;;;;;;7.75;2.80;;;;;;;;;;5032753;28;20065;-64
2022/10/28 10:08:44;;;;;;;5.28;3.30;;;;;;;;;;5047854;28;20081;-63
2022/10/28 10:11:22;;;;;;;12.25;2.95;;;;;;;;;;5032295;28;20054;-62
2022/10/28 10:13:49;;;;;;;10.30;3.97;;;;;;;;;;5033596;28;20100;-63
2022/10/28 10:16:41;;;;;;;8.30;2.80;;;;;;;;;;5048791;28;20107;-63
2022/10/28 10:19:09;;;;;;;8.43;2.88;;;;;;;;;;5047895;28;20140;-62
2022/10/28 10:21:41;;;;;;;9.35;3.22;;;;;;;;;;5033275;28;20049;-64
2022/10/28 10:24:34;;;;;;;14.10;3.47;;;;;;;;;;5033214;28;20045;-63
2022/10/28 10:27:16;;;;;;;7.20;2.58;;;;;;;;;;5032219;28;20057;-63
2022/10/28 10:29:43;;;;;;;7.80;2.50;;;;;;;;;;5030872;28;20046;-62
2022/10/28 10:32:16;;;;;;;8.98;2.60;;;;;;;;;;5032188;28;20054;-62
2022/10/28 10:34:51;;;;;;;5.25;2.22;;;;;;;;;;5033296;28;20054;-63
2022/10/28 10:37:20;;;;;;;6.32;2.35;;;;;;;;;;5016286;28;20108;-64
2022/10/28 10:40:24;;;;;;;7.95;2.25;;;;;;;;;;5011641;28;20057;-63
2022/10/28 10:42:51;;;;;;;7.18;2.97;;;;;;;;;;5013306;28;20045;-63
2022/10/28 10:45:37;;;;;;;7.57;2.10;;;;;;;;;;5013417;28;20145;-62
2022/10/28 10:48:14;;;;;;;7.15;2.63;;;;;;;;;;5018315;28;20508;-62
2022/10/28 10:50:42;;;;;;;5.45;1.65;;;;;;;;;;5032678;28;20642;-63
2022/10/28 10:53:19;;;;;;;10.10;2.85;;;;;;;;;;5032928;28;20041;-63
2022/10/28 10:56:07;;;;;;;7.25;3.65;;;;;;;;;;5048137;28;20084;-63
2022/10/28 10:58:38;;;;;;;9.15;2.20;;;;;;;;;;5032319;28;20417;-62
2022/10/28 11:01:06;;;;;;;6.75;2.38;;;;;;;;;;5047800;28;20424;-62
2022/10/28 11:03:50;;;;;;;7.28;2.47;;;;;;;;;;5047760;28;20463;-62
2022/10/28 11:06:23;;;;;;;4.45;2.65;;;;;;;;;;5047248;28;20126;-62
2022/10/28 11:08:57;;;;;;;5.55;2.45;;;;;;;;;;5030991;28;20084;-62
2022/10/28 11:11:52;;;;;;;11.80;2.70;;;;;;;;;;5031435;28;20062;-63
2022/10/28 11:14:23;;;;;;;8.77;1.95;;;;;;;;;;5029764;28;20421;-63
2022/10/28 11:16:56;;;;;;;10.75;3.00;;;;;;;;;;5030955;28;20558;-63
2022/10/28 11:19:27;;;;;;;7.63;2.42;;;;;;;;;;5031785;28;20049;-62
2022/10/28 11:22:18;;;;;;;6.15;2.55;;;;;;;;;;5047290;28;20088;-63
2022/10/28 11:25:05;;;;;;;6.40;2.53;;;;;;;;;;5019513;28;20136;-62
2022/10/28 11:27:35;;;;;;;7.93;2.30;;;;;;;;;;5027645;28;20566;-63
2022/10/28 11:30:02;;;;;;;10.18;2.10;;;;;;;;;;5011805;28;20050;-62
2022/10/28 11:32:47;;;;;;;7.85;2.15;;;;;;;;;;5011158;28;20104;-62
2022/10/28 11:35:33;;;;;;;6.18;2.38;;;;;;;;;;5011198;28;20049;-62
2022/10/28 11:38:35;;;;;;;9.15;2.03;;;;;;;;;;5031219;28;20054;-63
2022/10/28 11:41:17;;;;;;;8.20;2.45;;;;;;;;;;5029968;28;20503;-62
2022/10/28 11:43:43;;;;;;;7.65;2.13;;;;;;;;;;5047071;28;20072;-62
2022/10/28 11:46:17;;;;;;;9.18;2.95;;;;;;;;;;5032263;28;20119;-62
2022/10/28 11:48:43;;;;;;;5.68;1.77;;;;;;;;;;5046159;28;20053;-61
2022/10/28 11:51:37;;;;;;;11.23;1.48;;;;;;;;;;5032107;28;20088;-62
2022/10/28 11:54:19;;;;;;;5.65;2.05;;;;;;;;;;5047211;28;20046;-62
2022/10/28 11:56:52;;;;;;;8.88;2.10;;;;;;;;;;5031909;28;20116;-62
2022/10/28 11:59:24;;;;;;;;;;;;;;;;;;5026708;28;20145;-63
2022/10/28 12:02:05;;;;;;;11.27;2.25;;;;;;;;;;5012020;28;19972;-62
2022/10/28 12:04:42;;;;;;;11.95;2.65;;;;;;;;;;5026303;28;20056;-62
2022/10/28 12:07:36;;;;;;;7.97;2.22;;;;;;;;;;5026595;28;20054;-62
2022/10/28 12:10:37;;;;;;;6.68;2.72;;;;;;;;;;5011375;28;20050;-63
2022/10/28 12:13:13;;;;;;;5.45;2.75;;;;;;;;;;5014615;28;20081;-62
2022/10/28 12:16:00;;;;;;;5.90;2.35;;;;;;;;;;5027007;28;20546;-62
2022/10/28 12:18:45;;;;;;;6.47;2.53;;;;;;;;;;5026448;28;20124;-62
2022/10/28 12:21:26;;;;;;;6.05;2.55;;;;;;;;;;5011626;28;20555;-63
2022/10/28 12:23:53;;;;;;;5.78;2.40;;;;;;;;;;5012080;28;20129;-63
2022/10/28 12:26:20;;;;;;;5.63;2.70;;;;;;;;;;5027103;28;20116;-63
2022/10/28 12:28:56;;;;;;;5.32;2.20;;;;;;;;;;5009896;28;20100;-62
2022/10/28 12:31:29;;;;;;;6.47;3.05;;;;;;;;;;5014966;28;20046;-63
2022/10/28 12:33:57;;;;;;;12.07;2.90;;;;;;;;;;5031395;28;20476;-62
2022/10/28 12:36:44;;;;;;;8.43;2.80;;;;;;;;;;5031743;28;20125;-63
2022/10/28 12:39:20;;;;;;;6.55;2.60;;;;;;;;;;5029709;28;20539;-63
2022/10/28 12:41:58;;;;;;;7.30;2.15;;;;;;;;;;5046125;28;20460;-63
2022/10/28 12:44:25;;;;;;;6.90;2.17;;;;;;;;;;5042130;28;20046;-62
2022/10/28 12:47:14;;;;;;;6.10;2.10;;;;;;;;;;5030185;28;20099;-63
2022/10/28 12:50:08;;;;;;;6.10;2.20;;;;;;;;;;5043507;28;20093;-63
2022/10/28 12:52:47;;;;;;;7.65;2.63;;;;;;;;;;5014628;28;20056;-62
2022/10/28 12:55:20;;;;;;;5.25;2.00;;;;;;;;;;5014386;28;20100;-61
2022/10/28 12:57:50;;;;;;;6.60;2.63;;;;;;;;;;5015208;28;20054;-64
2022/10/28 13:00:24;;;;;;;6.60;2.20;;;;;;;;;;5014180;28;20089;-64
2022/10/28 13:03:03;;;;;;;5.82;1.90;;;;;;;;;;5015263;28;20050;-63
2022/10/28 13:05:37;;;;;;;11.18;2.67;;;;;;;;;;5015413;28;20054;-63
2022/10/28 13:08:12;;;;;;;5.40;1.85;;;;;;;;;;5029752;28;20054;-64
2022/10/28 13:11:05;;;;;;;9.20;2.22;;;;;;;;;;5030046;28;20053;-63
2022/10/28 13:13:54;;;;;;;2.95;1.75;;;;;;;;;;5026336;28;20137;-64
2022/10/28 13:17:04;;;;;;;7.28;2.00;;;;;;;;;;5028139;28;20050;-64
2022/10/28 13:19:50;;;;;;;9.27;2.53;;;;;;;;;;5013050;28;20136;-63
2022/10/28 13:22:38;;;;;;;7.15;2.60;;;;;;;;;;5014971;28;20050;-64
2022/10/28 13:25:39;;;;;;;9.93;2.42;;;;;;;;;;5014762;28;20504;-63
2022/10/28 13:28:10;;;;;;;7.63;2.22;;;;;;;;;;5014170;28;20085;-62
2022/10/28 13:30:36;;;;;;;7.47;2.03;;;;;;;;;;5013962;28;20058;-62
2022/10/28 13:33:08;;;;;;;11.40;2.70;;;;;;;;;;5049021;28;20057;-63
2022/10/28 13:35:35;;;;;;;5.70;2.10;;;;;;;;;;5023071;28;20100;-63
2022/10/28 13:38:01;;;;;;;7.20;2.58;;;;;;;;;;5015320;28;20467;-63
2022/10/28 13:40:31;;;;;;;5.10;2.78;;;;;;;;;;5014388;28;20092;-63
2022/10/28 13:42:58;;;;;;;4.28;1.95;;;;;;;;;;5014809;28;20054;-63
2022/10/28 13:45:48;;;;;;;5.43;1.90;;;;;;;;;;5014882;28;20061;-64
2022/10/28 13:48:27;;;;;;;4.85;2.25;;;;;;;;;;5014037;28;20045;-62
2022/10/28 13:51:08;;;;;;;6.35;1.98;;;;;;;;;;5014347;28;20089;-62
2022/10/28 13:53:44;;;;;;;7.17;3.00;;;;;;;;;;5015102;28;20137;-63
2022/10/28 13:56:16;;;;;;;6.15;2.33;;;;;;;;;;5014143;28;20288;-62
2022/10/28 13:58:59;;;;;;;6.95;2.30;;;;;;;;;;5012384;28;20493;-64
2022/10/28 14:01:40;;;;;;;9.70;2.78;;;;;;;;;;5013989;28;20135;-63
2022/10/28 14:04:23;;;;;;;8.00;3.23;;;;;;;;;;5013305;28;20054;-63
2022/10/28 14:07:16;;;;;;;9.50;2.45;;;;;;;;;;5029262;28;20085;-63
2022/10/28 14:09:43;;;;;;;10.45;2.25;;;;;;;;;;5030701;28;20533;-63
2022/10/28 14:12:16;;;;;;;8.07;2.35;;;;;;;;;;5033849;28;20111;-64
2022/10/28 14:15:20;;;;;;;11.23;2.65;;;;;;;;;;5033824;28;20137;-63
2022/10/28 14:17:50;;;;;;;5.50;2.13;;;;;;;;;;5033935;28;20130;-63
2022/10/28 14:20:35;;;;;;;9.93;2.75;;;;;;;;;;5015873;28;20049;-62
2022/10/28 14:23:20;;;;;;;7.75;2.67;;;;;;;;;;5032408;28;20056;-64
2022/10/28 14:25:49;;;;;;;10.20;2.53;;;;;;;;;;5033584;28;20049;-63
2022/10/28 14:31:06;;;;;;;9.52;3.53;;;;;;;;;;5033575;28;20068;-63
2022/10/28 14:33:38;;;;;;;5.22;2.50;;;;;;;;;;5033339;28;20050;-63
2022/10/28 14:36:17;;;;;;;12.85;2.88;;;;;;;;;;5048055;28;20139;-63
2022/10/28 14:38:52;;;;;;;10.65;2.65;;;;;;;;;;5032560;28;20097;-62
2022/10/28 14:41:27;;;;;;;12.60;3.08;;;;;;;;;;5033002;28;20555;-63
2022/10/28 14:44:26;;;;;;;7.47;2.63;;;;;;;;;;5033004;28;20136;-64
2022/10/28 14:47:20;;;;;;;8.95;2.85;;;;;;;;;;5047253;28;20493;-63
2022/10/28 14:50:14;;;;;;;10.27;3.03;;;;;;;;;;5032712;28;20468;-63
2022/10/28 14:52:41;;;;;;;8.85;3.80;;;;;;;;;;5032064;28;20053;-62
2022/10/28 14:55:12;;;;;;;8.48;2.75;;;;;;;;;;5032002;28;20128;-61
2022/10/28 14:57:39;;;;;;;6.93;3.45;;;;;;;;;;5031511;28;20045;-62
2022/10/28 15:00:07;;;;;;;6.70;2.97;;;;;;;;;;5032113;28;20562;-61
2022/10/28 15:02:35;;;;;;;6.57;2.65;;;;;;;;;;5031903;28;20479;-62
2022/10/28 15:05:11;;;;;;;7.10;2.53;;;;;;;;;;5015523;28;20056;-61
2022/10/28 15:07:38;;;;;;;8.13;2.70;;;;;;;;;;5032712;28;20054;-62
2022/10/28 15:10:15;;;;;;;9.43;2.90;;;;;;;;;;5030684;28;20492;-63
2022/10/28 15:12:43;;;;;;;6.22;2.83;;;;;;;;;;5032911;28;20057;-62
2022/10/28 15:15:50;;;;;;;11.20;3.00;;;;;;;;;;5014802;28;20046;-62